Details From CYUL - Montreal Pierre E Trudeau Intl
To CYUB - Tuktoyaktuk
Flight Number -
Tags Generated
Created
Modified
Stats Distance 2,253 nm / 4,172 km
Max Altitude 0 ft / 0 m
Waypoints 3
Social Downloads 0
Likes 0
Share VATSIM

Download

Looking for another format? Having issues loading an existing format? Contact us
Advertisement - Login to hide

Notes

Generated

Route

CYUL YUB CYUB

ID Type Via Altitude Latitude Longitude Leg Dist Tot Dist Heading (true) Name
O CYUL APT - 0 ft / 0 m 45.46250˚ -73.76500˚ - 0 nm - -
YUB NDB - 0 ft / 0 m 69.43444˚ -133.01722˚ 2252 nm 2252 nm 330° / 278° TUKTOYAKTUK NDB
O CYUB APT - 0 ft / 0 m 69.43722˚ -133.04250˚ 0 nm 2252 nm 287° / 287° -

Altitude Profile

Advertisement - Login to hide

Weather


0- 5 10 15 20 25 30 35+ Temperature / ° C

Clouds and Precipitation
Forecast for 2018-05-24 00:00 UTC. Updated 3 hours ago

Ground ~20,000 ft ~40,000 ft Winds

CYUL

Details ICAO CYUL (YUL)
Name Montreal Pierre E Trudeau Intl
Region Canada
Timezone America/Montreal (UTC-4.0)
Stats Elevation 117 ft / 36 m (AMSL)
Location 45.467269° -73.744028°
Runways 3
Magnetic Variation 14.292° W

METAR

CYUL 240200Z 31006KT 15SM FEW150 FEW210 FEW240 17/00 A2999 RMK AC1CC1CI2 AC TR CC TR SLP158 DENSITY ALT 400FT

Decode

TAF

TAF CYUL 232338Z 2400/2424 32012KT P6SM FEW040 FEW200 BKN240 BECMG 2403/2405 34010KT BKN240 FM241100 01008KT P6SM SCT240 FM241500 20006KT P6SM BKN230 FM242000 23012G22KT P6SM SKC RMK NXT FCST BY 240300Z

Decode

Departure Runways

ID Width Length Bearing (true) Bearing (mag) Surface Threshold Offset Overrun Length
06L 200 ft / 61 m 11,020 ft / 3,359 m 42.62° 56.91° Asphalt 0 ft / 0 m 0 ft / 0 m
06R 200 ft / 61 m 9,706 ft / 2,958 m 41.23° 55.52° Asphalt 0 ft / 0 m 0 ft / 0 m
10 200 ft / 61 m 6,831 ft / 2,082 m 87.45° 101.74° Asphalt 0 ft / 0 m 0 ft / 0 m
24L 200 ft / 61 m 9,706 ft / 2,958 m 221.25° 235.54° Asphalt 0 ft / 0 m 0 ft / 0 m
24R 200 ft / 61 m 11,020 ft / 3,359 m 222.64° 236.93° Asphalt 0 ft / 0 m 0 ft / 0 m
28 200 ft / 61 m 6,831 ft / 2,082 m 267.47° 281.76° Asphalt 0 ft / 0 m 0 ft / 0 m

CYUB

Details ICAO CYUB (YUB)
Name TUKTOYAKTUK
Region Canada
Timezone America/Yellowknife (UTC-6.0)
Stats Elevation 15 ft / 5 m (AMSL)
Location 69.433334° -133.026390°
Runways 1
Magnetic Variation 21.564° E

METAR

CYUB 240200Z 06015KT 7SM OVC014 M02/M04 A2996 RMK SC8 CIG RAG SLP147

Decode

TAF

TAF CYUB 240038Z 2401/2405 05015KT P6SM OVC010 TEMPO 2401/2405 5SM -SN OVC006 RMK NXT FCST WILL BE ISSUED AT 241445Z

Decode

Destination Runways

ID Width Length Bearing (true) Bearing (mag) Surface Threshold Offset Overrun Length
09 150 ft / 46 m 5,012 ft / 1,528 m 124.50° 102.94° Gravel 200 ft / 61 m 0 ft / 0 m
27 150 ft / 46 m 5,012 ft / 1,528 m 304.53° 282.97° Gravel 200 ft / 61 m 0 ft / 0 m